Time;durP1;ratioP1;P1;durP2;ratioP2;P2;SDS_P1;SDS_P2;PMS_P1;PMS_P2;Temp;Humidity;BMP_temperature;BMP_pressure;BME280_temperature;BME280_humidity;BME280_pressure;Samples;Min_cycle;Max_cycle;Signal;HPM_P1;HPM_P2
2022/06/22 00:00:03;;;;;;;0.93;0.66;;;;;;;;;;335520;157;864953;-55
2022/06/22 00:01:06;;;;;;;3.37;0.87;;;;;;;;;;336028;157;866613;-55
2022/06/22 00:02:09;;;;;;;2.85;0.57;;;;;;;;;;336012;157;857342;-55
2022/06/22 00:03:10;;;;;;;0.92;0.66;;;;;;;;;;336393;157;857293;-55
2022/06/22 00:04:14;;;;;;;1.91;0.55;;;;;;;;;;336706;157;857339;-55
2022/06/22 00:05:20;;;;;;;5.61;0.63;;;;;;;;;;334310;157;859620;-56
2022/06/22 00:06:33;;;;;;;1.81;0.57;;;;;;;;;;335320;157;859055;-55
2022/06/22 00:07:35;;;;;;;1.57;1.12;;;;;;;;;;337045;157;857881;-57
2022/06/22 00:08:39;;;;;;;2.94;0.59;;;;;;;;;;335435;157;856595;-56
2022/06/22 00:09:41;;;;;;;2.42;0.55;;;;;;;;;;334641;157;864981;-55
2022/06/22 00:10:47;;;;;;;2.45;0.56;;;;;;;;;;336716;157;857824;-54
2022/06/22 00:11:50;;;;;;;2.08;0.81;;;;;;;;;;335648;157;857325;-56
2022/06/22 00:12:52;;;;;;;1.41;0.50;;;;;;;;;;336200;157;859695;-56
2022/06/22 00:13:55;;;;;;;4.95;0.64;;;;;;;;;;329211;160;858901;-55
2022/06/22 00:14:57;;;;;;;2.34;0.70;;;;;;;;;;335030;157;859272;-56
2022/06/22 00:16:03;;;;;;;1.49;0.50;;;;;;;;;;335623;157;859184;-54
2022/06/22 00:17:05;;;;;;;0.97;0.52;;;;;;;;;;335134;157;859447;-57
2022/06/22 00:18:11;;;;;;;1.04;0.47;;;;;;;;;;336097;157;859491;-55
2022/06/22 00:19:15;;;;;;;1.49;0.51;;;;;;;;;;326317;161;860065;-58
2022/06/22 00:20:21;;;;;;;0.54;0.54;;;;;;;;;;330496;159;857773;-57
2022/06/22 00:21:26;;;;;;;1.90;0.42;;;;;;;;;;332339;159;865684;-56
2022/06/22 00:22:28;;;;;;;2.74;0.49;;;;;;;;;;325470;162;858608;-57
2022/06/22 00:23:37;;;;;;;2.69;0.53;;;;;;;;;;331386;157;857298;-56
2022/06/22 00:24:39;;;;;;;1.01;0.44;;;;;;;;;;327988;161;866737;-55
2022/06/22 00:25:41;;;;;;;1.77;0.60;;;;;;;;;;331775;159;857397;-55
2022/06/22 00:26:44;;;;;;;2.30;0.60;;;;;;;;;;329737;160;859721;-55
2022/06/22 00:27:46;;;;;;;0.88;0.50;;;;;;;;;;335900;157;865222;-55
2022/06/22 00:29:07;;;;;;;1.31;0.58;;;;;;;;;;335752;157;859156;-54
2022/06/22 00:30:11;;;;;;;2.16;0.60;;;;;;;;;;335816;157;858974;-55
2022/06/22 00:31:16;;;;;;;1.01;0.42;;;;;;;;;;335703;157;857707;-55
2022/06/22 00:32:27;;;;;;;2.23;0.58;;;;;;;;;;334762;157;857124;-57
2022/06/22 00:33:29;;;;;;;1.14;0.60;;;;;;;;;;334773;157;857465;-56
2022/06/22 00:34:31;;;;;;;0.43;0.33;;;;;;;;;;335950;157;857348;-55
2022/06/22 00:35:34;;;;;;;1.89;0.60;;;;;;;;;;336134;157;857345;-55
2022/06/22 00:36:37;;;;;;;1.90;0.54;;;;;;;;;;335827;157;856968;-55
2022/06/22 00:37:39;;;;;;;2.86;0.60;;;;;;;;;;335931;157;860027;-55
2022/06/22 00:38:41;;;;;;;4.24;0.64;;;;;;;;;;336651;157;866403;-58
2022/06/22 00:39:50;;;;;;;1.21;0.66;;;;;;;;;;335989;157;864536;-54
2022/06/22 00:40:54;;;;;;;2.71;0.61;;;;;;;;;;331342;159;865552;-56
2022/06/22 00:41:58;;;;;;;0.99;0.51;;;;;;;;;;331605;157;858093;-55
2022/06/22 02:03:33;;;;;;;0.99;0.60;;;;;;;11.95;68.87;98151.16;370673;142;877412;-56
2022/06/22 02:04:42;;;;;;;1.68;0.78;;;;;;;11.86;68.68;98154.15;364011;145;859605;-56
2022/06/22 02:05:57;;;;;;;1.78;0.61;;;;;;;11.87;68.75;98155.83;363785;147;857350;-56
2022/06/22 02:08:26;;;;;;;3.06;0.71;;;;;;;;;;364095;147;857581;-57
2022/06/22 02:09:29;;;;;;;2.69;0.59;;;;;;;;;;363172;145;857920;-56
2022/06/22 02:10:39;;;;;;;2.09;0.59;;;;;;;;;;362541;147;864906;-55
2022/06/22 02:11:42;;;;;;;0.86;0.50;;;;;;;;;;355380;149;858058;-56
2022/06/22 02:12:45;;;;;;;0.99;0.51;;;;;;;;;;363275;147;859671;-55
2022/06/22 02:13:57;;;;;;;4.19;0.68;;;;;;;;;;362713;146;857367;-55
2022/06/22 02:15:01;;;;;;;0.71;0.71;;;;;;;;;;355762;147;859518;-54
2022/06/22 02:16:21;;;;;;;1.68;0.51;;;;;;;;;;362544;147;856213;-56
2022/06/22 02:17:24;;;;;;;1.97;0.53;;;;;;;;;;362100;147;857201;-56
2022/06/22 02:18:33;;;;;;;1.21;0.79;;;;;;;;;;363304;146;856276;-56
2022/06/22 02:19:35;;;;;;;1.05;0.44;;;;;;;;;;361482;147;863538;-55
2022/06/22 02:20:37;;;;;;;0.65;0.43;;;;;;;;;;361958;145;856335;-56
2022/06/22 02:21:42;;;;;;;1.79;0.66;;;;;;;;;;363270;145;857020;-56
2022/06/22 02:22:44;;;;;;;3.03;0.48;;;;;;;;;;363929;146;856400;-55
2022/06/22 02:23:47;;;;;;;0.90;0.44;;;;;;;;;;362548;145;856535;-56
2022/06/22 02:24:49;;;;;;;0.72;0.40;;;;;;;;;;364219;145;856814;-56
2022/06/22 02:26:02;;;;;;;1.04;0.69;;;;;;;;;;362429;145;856312;-57
2022/06/22 02:27:06;;;;;;;2.87;0.60;;;;;;;;;;363449;146;857092;-56
2022/06/22 02:28:08;;;;;;;0.89;0.69;;;;;;;;;;362049;147;856285;-56
2022/06/22 02:29:10;;;;;;;2.30;0.60;;;;;;;;;;363708;146;856955;-57
2022/06/22 02:30:11;;;;;;;2.49;0.60;;;;;;;;;;363819;146;856200;-56
2022/06/22 02:31:13;;;;;;;0.78;0.43;;;;;;;;;;349678;150;856175;-57
2022/06/22 02:32:15;;;;;;;2.78;0.62;;;;;;;;;;362904;145;863849;-57
2022/06/22 02:33:17;;;;;;;1.01;0.60;;;;;;;;;;362469;145;856303;-56
2022/06/22 02:34:19;;;;;;;1.09;0.60;;;;;;;;;;362870;146;857221;-55
2022/06/22 02:35:20;;;;;;;1.47;0.59;;;;;;;;;;361209;146;865136;-56
2022/06/22 02:36:24;;;;;;;1.81;0.59;;;;;;;;;;363747;146;862292;-56
2022/06/22 02:37:26;;;;;;;2.41;0.60;;;;;;;;;;362832;145;857479;-56
2022/06/22 02:38:28;;;;;;;0.86;0.60;;;;;;;;;;362734;146;859672;-55
2022/06/22 02:39:30;;;;;;;5.64;0.81;;;;;;;;;;362874;145;858807;-55
2022/06/22 02:44:29;;;;;;;2.69;0.58;;;;;;;;;;362165;146;862499;-54
2022/06/22 02:44:30;;;;;;;2.29;0.48;;;;;;;;;;362753;146;865224;-55
2022/06/22 02:45:31;;;;;;;0.98;0.52;;;;;;;;;;362535;146;858146;-55
2022/06/22 02:46:35;;;;;;;1.73;0.49;;;;;;;;;;355908;147;857274;-54
2022/06/22 02:47:45;;;;;;;4.04;0.69;;;;;;;;;;362225;146;857276;-56
2022/06/22 02:48:48;;;;;;;0.60;0.43;;;;;;;;;;363504;146;859709;-55
2022/06/22 02:49:54;;;;;;;1.81;0.79;;;;;;;;;;363772;145;857303;-55
2022/06/22 02:51:04;;;;;;;0.70;0.54;;;;;;;;;;362296;146;859208;-55
2022/06/22 02:52:06;;;;;;;0.57;0.47;;;;;;;;;;362796;147;859604;-56
2022/06/22 02:53:18;;;;;;;0.79;0.51;;;;;;;;;;364374;146;856859;-55
2022/06/22 02:54:21;;;;;;;0.79;0.57;;;;;;;;;;362087;147;857666;-57
2022/06/22 02:55:24;;;;;;;1.51;0.66;;;;;;;;;;363566;146;859145;-56
2022/06/22 02:56:27;;;;;;;2.67;0.63;;;;;;;;;;363006;146;858379;-56
2022/06/22 02:57:31;;;;;;;0.92;0.53;;;;;;;;;;363209;146;857224;-55
2022/06/22 02:58:33;;;;;;;1.28;0.60;;;;;;;;;;362405;146;858149;-56
2022/06/22 02:59:34;;;;;;;1.65;0.71;;;;;;;;;;356104;149;858504;-55
2022/06/22 03:00:38;;;;;;;0.51;0.40;;;;;;;;;;363391;146;856874;-57
2022/06/22 03:01:40;;;;;;;0.83;0.52;;;;;;;;;;363704;145;868540;-57
2022/06/22 03:02:42;;;;;;;4.96;0.62;;;;;;;;;;362472;145;857284;-56
2022/06/22 03:03:52;;;;;;;2.53;0.54;;;;;;;;;;362257;146;864495;-57
2022/06/22 03:04:54;;;;;;;1.48;0.51;;;;;;;;;;354199;147;857197;-56
2022/06/22 03:05:56;;;;;;;1.06;0.71;;;;;;;;;;356724;148;864849;-55
2022/06/22 03:06:58;;;;;;;1.01;0.61;;;;;;;;;;356789;148;857275;-57
2022/06/22 03:08:00;;;;;;;0.94;0.47;;;;;;;;;;363254;147;859283;-56
2022/06/22 03:09:02;;;;;;;3.24;0.60;;;;;;;;;;363526;145;859647;-56
2022/06/22 03:10:05;;;;;;;0.64;0.52;;;;;;;;;;363080;146;858835;-57
2022/06/22 03:11:07;;;;;;;2.01;0.49;;;;;;;;;;360957;146;857958;-57
2022/06/22 03:12:09;;;;;;;2.55;0.60;;;;;;;;;;364290;146;857730;-55
2022/06/22 03:13:13;;;;;;;1.64;0.43;;;;;;;;;;362326;145;859311;-56
2022/06/22 03:14:17;;;;;;;2.33;0.91;;;;;;;;;;363461;146;858240;-57
2022/06/22 03:15:19;;;;;;;2.78;0.50;;;;;;;;;;362985;145;857362;-55
2022/06/22 03:16:29;;;;;;;0.95;0.55;;;;;;;;;;361045;146;859386;-56
2022/06/22 03:17:33;;;;;;;0.81;0.58;;;;;;;;;;361920;145;865352;-56
2022/06/22 03:18:35;;;;;;;0.95;0.40;;;;;;;;;;364407;146;857227;-55
2022/06/22 03:19:43;;;;;;;4.36;0.60;;;;;;;;;;359871;147;856797;-57
2022/06/22 03:20:52;;;;;;;0.94;0.50;;;;;;;;;;357292;147;857851;-57
2022/06/22 03:21:54;;;;;;;0.75;0.45;;;;;;;;;;363992;146;857673;-57
2022/06/22 03:22:58;;;;;;;0.54;0.43;;;;;;;;;;363700;146;857694;-56
2022/06/22 03:24:07;;;;;;;0.86;0.42;;;;;;;;;;362067;146;859295;-57
2022/06/22 03:25:21;;;;;;;3.31;0.59;;;;;;;;;;363666;146;858901;-58
2022/06/22 03:26:27;;;;;;;1.23;0.65;;;;;;;;;;363432;145;858969;-55
2022/06/22 03:27:30;;;;;;;1.14;0.43;;;;;;;;;;363688;146;857267;-56
2022/06/22 03:28:33;;;;;;;0.73;0.63;;;;;;;;;;362353;146;858135;-58
2022/06/22 03:29:38;;;;;;;3.07;0.72;;;;;;;;;;358144;149;858946;-56
2022/06/22 03:30:42;;;;;;;0.89;0.52;;;;;;;;;;354347;147;857539;-57
2022/06/22 03:31:45;;;;;;;0.62;0.40;;;;;;;;;;362771;145;857343;-57
2022/06/22 03:32:52;;;;;;;1.87;0.59;;;;;;;;;;362179;146;858999;-59
2022/06/22 03:33:55;;;;;;;1.11;0.49;;;;;;;;;;363248;145;857479;-56
2022/06/22 03:35:00;;;;;;;2.00;0.59;;;;;;;;;;360746;146;858936;-57
2022/06/22 03:36:04;;;;;;;3.41;0.53;;;;;;;;;;360868;146;857339;-57
2022/06/22 03:37:07;;;;;;;0.83;0.60;;;;;;;;;;361244;146;857242;-57
2022/06/22 03:38:19;;;;;;;2.49;0.54;;;;;;;;;;362296;145;863760;-56
2022/06/22 03:39:21;;;;;;;2.12;0.55;;;;;;;;;;362491;146;864986;-57
2022/06/22 03:40:25;;;;;;;2.03;0.58;;;;;;;;;;362428;146;856353;-56
2022/06/22 03:41:27;;;;;;;3.83;0.51;;;;;;;;;;362213;146;858674;-55
2022/06/22 03:42:34;;;;;;;2.27;0.41;;;;;;;;;;361177;146;858325;-56
2022/06/22 03:43:46;;;;;;;0.50;0.50;;;;;;;;;;363260;145;860824;-56
2022/06/22 03:44:53;;;;;;;1.48;0.61;;;;;;;;;;362785;146;857301;-55
2022/06/22 03:46:00;;;;;;;1.15;0.58;;;;;;;;;;363334;146;858073;-55
2022/06/22 03:47:07;;;;;;;1.19;0.67;;;;;;;;;;361927;145;857254;-55
2022/06/22 03:48:20;;;;;;;0.81;0.49;;;;;;;;;;362380;145;856231;-56
2022/06/22 03:49:23;;;;;;;1.71;0.59;;;;;;;;;;363229;146;856410;-56
2022/06/22 03:50:27;;;;;;;1.02;0.46;;;;;;;;;;362779;145;856584;-55
2022/06/22 03:51:35;;;;;;;1.71;0.64;;;;;;;14.49;100.00;112913.77;361093;146;863593;-57
2022/06/22 03:52:38;;;;;;;1.45;0.46;;;;;;;;;;363203;146;856117;-58
2022/06/22 03:53:42;;;;;;;2.22;0.51;;;;;;;;;;362814;146;856469;-56
2022/06/22 03:54:45;;;;;;;1.25;0.64;;;;;;;;;;361471;146;858037;-56
2022/06/22 03:55:47;;;;;;;2.97;1.53;;;;;;;;;;363593;146;857165;-56
2022/06/22 03:56:51;;;;;;;1.70;0.50;;;;;;;;;;362252;146;856413;-57
2022/06/22 03:57:52;;;;;;;1.75;1.00;;;;;;;;;;361483;146;856627;-57
2022/06/22 03:58:54;;;;;;;1.09;0.66;;;;;;;;;;363745;146;856153;-55
2022/06/22 03:59:55;;;;;;;1.04;0.56;;;;;;;;;;363463;146;863829;-57
2022/06/22 04:00:57;;;;;;;1.18;0.61;;;;;;;;;;363474;145;856622;-57
2022/06/22 04:01:59;;;;;;;1.71;0.66;;;;;;;;;;357148;148;857223;-57
2022/06/22 04:03:01;;;;;;;1.18;0.60;;;;;;;;;;355499;148;857486;-58
2022/06/22 04:04:03;;;;;;;1.34;0.59;;;;;;;;;;362107;145;856820;-57
2022/06/22 04:05:04;;;;;;;0.79;0.57;;;;;;;;;;363257;146;856396;-56
2022/06/22 04:06:07;;;;;;;4.05;0.69;;;;;;;;;;363957;146;863861;-55
2022/06/22 04:07:13;;;;;;;0.89;0.71;;;;;;;;;;362799;146;856730;-57
2022/06/22 04:08:17;;;;;;;1.16;0.50;;;;;;;;;;361067;145;863664;-56
2022/06/22 04:09:20;;;;;;;1.54;0.62;;;;;;;;;;362365;146;856982;-58
2022/06/22 04:10:24;;;;;;;1.12;0.56;;;;;;;;;;362370;146;856311;-57
2022/06/22 04:11:33;;;;;;;0.69;0.60;;;;;;;;;;360966;146;857324;-56
2022/06/22 04:12:35;;;;;;;2.11;0.77;;;;;;;;;;363717;147;856211;-56
2022/06/22 04:13:49;;;;;;;0.78;0.62;;;;;;;;;;363241;145;856827;-57
2022/06/22 04:14:53;;;;;;;4.06;1.07;;;;;;;;;;362530;145;856396;-55
2022/06/22 04:15:56;;;;;;;2.19;0.66;;;;;;;;;;363348;146;856411;-54
2022/06/22 04:17:02;;;;;;;1.27;0.57;;;;;;;;;;362316;145;856102;-55
2022/06/22 04:18:14;;;;;;;0.95;0.89;;;;;;;;;;363361;147;856382;-55
2022/06/22 04:19:18;;;;;;;1.57;0.83;;;;;;;;;;363034;145;856302;-55
2022/06/22 04:20:21;;;;;;;1.79;0.64;;;;;;;;;;363482;146;856231;-55
2022/06/22 04:21:27;;;;;;;1.34;0.66;;;;;;;;;;362184;145;856349;-56
2022/06/22 04:22:29;;;;;;;1.79;0.72;;;;;;;;;;362030;146;857336;-55
2022/06/22 04:23:35;;;;;;;0.89;0.51;;;;;;;;;;363618;145;858607;-55
2022/06/22 04:24:39;;;;;;;1.76;0.70;;;;;;;;;;362348;145;866448;-56
2022/06/22 04:25:41;;;;;;;1.42;0.65;;;;;;;;;;361956;146;857287;-56
2022/06/22 04:26:47;;;;;;;1.64;0.66;;;;;;;;;;363167;146;857334;-56
2022/06/22 04:27:49;;;;;;;1.44;0.59;;;;;;;;;;362097;146;857939;-57
2022/06/22 04:28:58;;;;;;;1.08;0.60;;;;;;;;;;364015;145;857130;-55
2022/06/22 04:30:01;;;;;;;2.36;0.84;;;;;;;;;;362085;146;865381;-54
2022/06/22 04:31:03;;;;;;;2.01;0.70;;;;;;;;;;361656;145;857376;-55
2022/06/22 04:32:15;;;;;;;2.68;0.59;;;;;;;;;;357169;148;859042;-55
2022/06/22 04:33:25;;;;;;;1.93;0.52;;;;;;;;;;358427;147;858453;-56
2022/06/22 04:34:28;;;;;;;1.06;0.62;;;;;;;;;;361248;145;857155;-55
2022/06/22 04:35:34;;;;;;;0.93;0.57;;;;;;;;;;360304;145;856270;-54
2022/06/22 04:36:38;;;;;;;2.78;0.56;;;;;;;;;;361545;146;857933;-56
2022/06/22 04:37:41;;;;;;;2.47;0.60;;;;;;;;;;362751;146;857186;-55
2022/06/22 04:38:47;;;;;;;0.98;0.65;;;;;;;;;;360986;145;865711;-55
2022/06/22 04:39:50;;;;;;;3.04;0.74;;;;;;;;;;361013;146;865377;-53
2022/06/22 04:40:54;;;;;;;0.98;0.58;;;;;;;;;;361903;146;859979;-54
2022/06/22 04:41:56;;;;;;;0.78;0.51;;;;;;;;;;363152;146;857312;-59
2022/06/22 04:43:01;;;;;;;1.27;0.50;;;;;;;;;;362805;146;857216;-56
2022/06/22 04:44:04;;;;;;;1.84;0.53;;;;;;;;;;355794;148;864595;-57
2022/06/22 04:45:06;;;;;;;1.96;1.19;;;;;;;;;;356164;147;858887;-55
2022/06/22 04:46:09;;;;;;;2.49;0.68;;;;;;;;;;363676;146;857243;-55
2022/06/22 04:47:12;;;;;;;1.47;0.65;;;;;;;;;;356525;149;858662;-54
2022/06/22 04:48:19;;;;;;;2.11;0.61;;;;;;;;;;355716;148;857302;-55
2022/06/22 04:49:22;;;;;;;2.63;0.69;;;;;;;;;;362853;146;857367;-54
2022/06/22 04:50:24;;;;;;;3.21;0.66;;;;;;;;;;362966;146;857225;-58
2022/06/22 04:51:28;;;;;;;1.69;0.83;;;;;;;;;;363141;145;865519;-57
2022/06/22 04:52:30;;;;;;;1.83;0.69;;;;;;;;;;362169;146;857317;-56
2022/06/22 04:53:34;;;;;;;1.09;0.54;;;;;;;;;;360588;146;859328;-55
2022/06/22 04:54:40;;;;;;;8.66;0.89;;;;;;;;;;362215;147;864725;-55
2022/06/22 04:55:41;;;;;;;0.57;0.48;;;;;;;;;;362074;146;858609;-56
2022/06/22 04:56:44;;;;;;;0.99;0.49;;;;;;;;;;361829;146;857329;-54
2022/06/22 04:57:48;;;;;;;1.81;0.63;;;;;;;;;;363231;145;864868;-54
2022/06/22 04:58:51;;;;;;;0.98;0.54;;;;;;;;;;362202;146;857575;-54
2022/06/22 04:59:53;;;;;;;2.04;0.65;;;;;;;;;;361664;146;857349;-55
2022/06/22 05:00:54;;;;;;;0.99;0.64;;;;;;;;;;362409;146;857160;-55
2022/06/22 05:01:58;;;;;;;0.97;0.60;;;;;;;;;;363483;146;865555;-55
2022/06/22 05:03:07;;;;;;;1.04;0.63;;;;;;;;;;361272;145;857273;-55
2022/06/22 05:04:20;;;;;;;1.86;0.61;;;;;;;;;;356880;148;858995;-57
2022/06/22 05:05:23;;;;;;;0.84;0.59;;;;;;;;;;351893;149;859018;-54
2022/06/22 05:06:42;;;;;;;2.19;0.59;;;;;;;;;;355788;145;857284;-54
2022/06/22 05:07:49;;;;;;;1.39;0.67;;;;;;;;;;361833;145;857266;-56
2022/06/22 05:08:56;;;;;;;1.90;0.95;;;;;;;;;;361130;146;857812;-55
2022/06/22 05:10:02;;;;;;;0.92;0.64;;;;;;;;;;362841;146;857276;-54
2022/06/22 05:11:12;;;;;;;2.29;0.66;;;;;;;;;;362235;146;856172;-57
2022/06/22 05:12:16;;;;;;;2.02;0.80;;;;;;;;;;362870;145;857186;-58
2022/06/22 05:13:24;;;;;;;2.33;0.96;;;;;;;;;;355720;148;864985;-57
2022/06/22 05:14:27;;;;;;;2.89;0.88;;;;;;;;;;363631;146;857404;-57
2022/06/22 05:15:29;;;;;;;1.44;0.78;;;;;;;;;;363730;146;860448;-57
2022/06/22 05:16:32;;;;;;;1.30;0.63;;;;;;;;;;363194;145;856251;-57
2022/06/22 05:21:32;;;;;;;1.90;0.70;;;;;;;;;;380564;139;882177;-55
2022/06/22 05:22:34;;;;;;;2.73;0.74;;;;;;;;;;375554;141;857270;-56
2022/06/22 05:23:36;;;;;;;3.54;0.71;;;;;;;;;;374383;138;857701;-56
2022/06/22 05:24:39;;;;;;;0.71;0.62;;;;;;;;;;374604;138;858995;-56
2022/06/22 05:25:41;;;;;;;1.53;0.67;;;;;;;;;;375329;138;857217;-56
2022/06/22 05:26:43;;;;;;;0.99;0.50;;;;;;;;;;373621;138;857315;-56
2022/06/22 05:27:50;;;;;;;1.67;0.71;;;;;;;;;;375499;138;857828;-56
2022/06/22 05:29:00;;;;;;;1.54;0.69;;;;;;;;;;376475;138;858960;-57
2022/06/22 05:30:02;;;;;;;;;;;;;;;;;;377239;138;857303;-55
2022/06/22 05:31:05;;;;;;;1.44;0.60;;;;;;;;;;375359;138;857428;-55
2022/06/22 05:32:08;;;;;;;0.83;0.83;;;;;;;;;;373907;138;858133;-56
2022/06/22 05:33:10;;;;;;;1.19;0.64;;;;;;;;;;375220;138;864772;-56
2022/06/22 05:34:17;;;;;;;2.60;0.71;;;;;;;;;;373588;138;867033;-56
2022/06/22 05:35:20;;;;;;;2.88;0.87;;;;;;;;;;375075;138;865263;-57
2022/06/22 05:36:23;;;;;;;1.34;0.84;;;;;;;;;;376522;138;859242;-56
2022/06/22 05:37:28;;;;;;;2.39;1.42;;;;;;;;;;374505;138;865581;-56
2022/06/22 05:38:31;;;;;;;1.71;0.88;;;;;;;;;;374515;138;857735;-55
2022/06/22 05:39:33;;;;;;;3.01;0.93;;;;;;;;;;373298;138;860724;-55
2022/06/22 05:40:35;;;;;;;3.56;0.99;;;;;;;;;;376172;141;864828;-56
2022/06/22 05:41:38;;;;;;;2.02;1.13;;;;;;;;;;374016;138;857025;-55
2022/06/22 05:42:47;;;;;;;2.99;1.22;;;;;;;;;;375306;138;858235;-57
2022/06/22 05:43:49;;;;;;;3.70;1.25;;;;;;;;;;377792;138;857313;-57
2022/06/22 05:44:51;;;;;;;1.81;1.02;;;;;;;;;;376344;138;866111;-57
2022/06/22 05:45:54;;;;;;;2.26;0.93;;;;;;;;;;375948;138;858509;-57
2022/06/22 05:46:57;;;;;;;2.06;1.16;;;;;;;;;;375134;138;858363;-56
2022/06/22 05:47:58;;;;;;;3.08;0.97;;;;;;;;;;375373;138;859033;-55
2022/06/22 05:49:00;;;;;;;3.61;0.96;;;;;;;;;;375431;138;857154;-56
2022/06/22 05:50:10;;;;;;;3.30;1.24;;;;;;;;;;376464;139;858016;-56
2022/06/22 05:51:19;;;;;;;1.32;0.81;;;;;;;;;;377295;138;866481;-57
2022/06/22 05:52:32;;;;;;;1.39;0.90;;;;;;;;;;378614;138;857172;-57
2022/06/22 05:53:35;;;;;;;2.53;0.94;;;;;;;;;;379360;138;857069;-56
2022/06/22 05:54:40;;;;;;;2.58;0.78;;;;;;;;;;377011;138;858861;-57
2022/06/22 05:55:46;;;;;;;4.08;0.82;;;;;;;;;;374277;138;857188;-57
2022/06/22 05:56:51;;;;;;;1.61;0.87;;;;;;;;;;374621;138;865118;-56
2022/06/22 05:57:54;;;;;;;2.05;0.73;;;;;;;;;;373615;138;857271;-56
2022/06/22 05:59:07;;;;;;;1.42;0.86;;;;;;;;;;374676;138;857258;-57
2022/06/22 06:00:17;;;;;;;2.29;0.91;;;;;;;;;;373994;141;857677;-57
2022/06/22 06:01:33;;;;;;;1.97;0.86;;;;;;;;;;375324;138;857826;-57
2022/06/22 06:02:36;;;;;;;1.35;1.22;;;;;;;;;;374833;138;864769;-57
2022/06/22 06:03:39;;;;;;;0.94;0.82;;;;;;;;;;374521;138;859252;-58
2022/06/22 06:04:55;;;;;;;2.08;0.85;;;;;;;;;;376638;138;857176;-57
2022/06/22 06:06:01;;;;;;;1.43;0.90;;;;;;;;;;375888;138;860114;-56
2022/06/22 06:07:20;;;;;;;2.38;0.93;;;;;;;;;;374748;138;857253;-57
2022/06/22 06:08:42;;;;;;;1.58;0.83;;;;;;;;;;375139;138;858099;-58
2022/06/22 06:09:44;;;;;;;1.70;0.88;;;;;;;;;;374567;138;857449;-57
2022/06/22 06:10:45;;;;;;;1.63;0.90;;;;;;;;;;374208;138;857410;-57
2022/06/22 06:11:49;;;;;;;1.37;0.96;;;;;;;;;;375386;138;856398;-57
2022/06/22 06:12:55;;;;;;;1.00;0.82;;;;;;;;;;377134;138;866717;-57
2022/06/22 06:13:59;;;;;;;2.67;0.88;;;;;;;;;;377307;138;859556;-58
2022/06/22 06:15:02;;;;;;;1.78;0.86;;;;;;;;;;374673;138;858866;-57
2022/06/22 06:16:06;;;;;;;1.51;0.86;;;;;;;;;;375699;138;859110;-56
2022/06/22 06:17:12;;;;;;;1.91;0.95;;;;;;;;;;374775;138;857404;-54
2022/06/22 06:18:15;;;;;;;1.45;0.89;;;;;;;;;;374488;141;866887;-57
2022/06/22 06:19:17;;;;;;;1.51;0.86;;;;;;;;;;376538;138;857256;-56
2022/06/22 06:20:28;;;;;;;2.07;0.97;;;;;;;;;;376805;138;856514;-55
2022/06/22 06:21:30;;;;;;;;;;;;;;;;;;378396;138;856024;-56
2022/06/22 06:22:31;;;;;;;1.29;0.89;;;;;;;;;;378059;138;856294;-56
2022/06/22 06:23:41;;;;;;;1.86;1.02;;;;;;;;;;377998;138;863489;-57
2022/06/22 06:27:35;;;;;;;3.29;1.08;;;;;;;;;;374317;138;856258;-56
2022/06/22 06:28:39;;;;;;;1.72;0.91;;;;;;;;;;375998;138;856820;-56
2022/06/22 06:29:56;;;;;;;1.20;0.88;;;;;;;;;;374256;141;856957;-57
2022/06/22 06:30:58;;;;;;;1.66;0.76;;;;;;;;;;375490;138;863604;-56
2022/06/22 06:32:11;;;;;;;1.59;0.90;;;;;;;;;;377453;141;856287;-57
2022/06/22 06:33:20;;;;;;;0.92;0.70;;;;;;;;;;375337;141;863565;-57
2022/06/22 06:34:23;;;;;;;1.86;0.97;;;;;;;;;;377055;138;856237;-57
2022/06/22 06:35:32;;;;;;;2.30;0.89;;;;;;;;;;376078;138;856292;-57
2022/06/22 06:36:36;;;;;;;1.17;0.83;;;;;;;;;;373827;138;856112;-57
2022/06/22 06:37:39;;;;;;;2.79;0.93;;;;;;;;;;373776;138;857542;-57
2022/06/22 06:38:46;;;;;;;0.68;0.62;;;;;;;;;;376583;138;856457;-57
2022/06/22 06:39:49;;;;;;;2.85;1.09;;;;;;;;;;375801;138;857544;-57
2022/06/22 06:40:53;;;;;;;1.27;0.74;;;;;;;;;;374800;138;856423;-57
2022/06/22 06:42:05;;;;;;;0.66;0.64;;;;;;;;;;373679;138;856266;-56
2022/06/22 06:43:16;;;;;;;1.56;1.14;;;;;;;;;;372779;140;864593;-59
2022/06/22 06:44:18;;;;;;;1.99;0.74;;;;;;;;;;372930;139;856302;-57
2022/06/22 06:45:21;;;;;;;4.23;1.09;;;;;;;;;;375516;138;856446;-56
2022/06/22 06:46:25;;;;;;;2.31;0.74;;;;;;;;;;368778;142;856369;-57
2022/06/22 06:47:28;;;;;;;1.01;0.68;;;;;;;;;;367561;142;863646;-55
2022/06/22 06:48:30;;;;;;;2.26;0.54;;;;;;;;;;373584;138;856746;-57
2022/06/22 06:49:36;;;;;;;1.82;0.81;;;;;;;;;;374340;138;856432;-59
2022/06/22 06:50:42;;;;;;;1.02;0.70;;;;;;;;;;375138;138;863906;-57
2022/06/22 06:51:46;;;;;;;1.65;0.61;;;;;;;;;;376060;138;859991;-57
2022/06/22 06:52:55;;;;;;;1.58;0.78;;;;;;;;;;375346;138;856784;-57
2022/06/22 06:54:03;;;;;;;0.82;0.62;;;;;;;;;;373605;138;857156;-57
2022/06/22 06:55:15;;;;;;;0.92;0.55;;;;;;;;;;373722;138;857813;-57
2022/06/22 06:56:22;;;;;;;0.72;0.67;;;;;;;;;;374482;138;857268;-56
2022/06/22 06:57:24;;;;;;;1.45;0.59;;;;;;;;;;376546;138;857244;-57
2022/06/22 06:58:31;;;;;;;0.65;0.60;;;;;;;;;;368845;142;857288;-58
2022/06/22 06:59:32;;;;;;;1.84;0.50;;;;;;;;;;368384;141;857173;-57
2022/06/22 07:00:34;;;;;;;0.61;0.54;;;;;;;;;;374658;138;859164;-58
2022/06/22 07:01:37;;;;;;;1.50;0.50;;;;;;;;;;376319;138;858704;-57
2022/06/22 07:02:39;;;;;;;1.27;0.62;;;;;;;;;;373977;138;864740;-57
2022/06/22 07:03:41;;;;;;;0.91;0.50;;;;;;;;;;374161;138;867285;-57
2022/06/22 07:04:42;;;;;;;2.50;0.71;;;;;;;;;;374094;138;856280;-56
2022/06/22 07:05:44;;;;;;;8.14;1.51;;;;;;;;;;374164;138;859425;-56
2022/06/22 07:06:46;;;;;;;5.84;1.14;;;;;;;;;;378555;138;857353;-56
2022/06/22 07:07:49;;;;;;;0.60;0.60;;;;;;;;;;378008;138;864724;-57
2022/06/22 07:08:58;;;;;;;0.86;0.59;;;;;;;;;;374879;138;860046;-56
2022/06/22 07:10:02;;;;;;;0.84;0.56;;;;;;;;;;375933;138;859446;-58
2022/06/22 07:11:19;;;;;;;3.06;0.78;;;;;;;15.14;100.00;47677.29;376424;138;858977;-57
2022/06/22 07:12:35;;;;;;;0.74;0.59;;;;;;;;;;376887;138;857766;-58
2022/06/22 07:13:39;;;;;;;1.74;0.76;;;;;;;;;;373958;138;858156;-56
2022/06/22 07:14:41;;;;;;;2.79;0.82;;;;;;;;;;376292;138;857279;-57
2022/06/22 07:15:45;;;;;;;3.44;0.69;;;;;;;;;;374835;138;858730;-57
2022/06/22 07:16:50;;;;;;;1.18;0.47;;;;;;;;;;376765;138;865909;-56
2022/06/22 07:17:52;;;;;;;2.33;0.53;;;;;;;;;;376419;138;857335;-57
2022/06/22 07:19:07;;;;;;;1.31;0.71;;;;;;;;;;375848;138;857284;-58
2022/06/22 07:20:12;;;;;;;1.04;0.59;;;;;;;;;;373619;138;857236;-58
2022/06/22 07:21:17;;;;;;;1.13;0.57;;;;;;;;;;374797;138;858216;-58
2022/06/22 07:22:39;;;;;;;2.24;0.67;;;;;;;;;;377385;138;857200;-58
2022/06/22 07:23:45;;;;;;;2.47;0.60;;;;;;;;;;378979;138;858584;-59
2022/06/22 07:24:51;;;;;;;1.11;0.55;;;;;;;;;;370753;141;859248;-56
2022/06/22 07:25:54;;;;;;;0.57;0.52;;;;;;;;;;369974;141;857792;-57
2022/06/22 07:27:03;;;;;;;1.00;0.55;;;;;;;;;;378333;138;857312;-57
2022/06/22 07:28:07;;;;;;;2.66;0.60;;;;;;;;;;374378;138;857389;-57
2022/06/22 07:29:16;;;;;;;1.62;0.63;;;;;;;;;;380626;138;857228;-57
2022/06/22 07:30:20;;;;;;;37.60;3.83;;;;;;;;;;375862;138;857255;-57
2022/06/22 07:31:24;;;;;;;10.21;1.57;;;;;;;;;;374304;138;857309;-56
2022/06/22 07:32:39;;;;;;;2.21;0.54;;;;;;;;;;375982;139;857607;-56
2022/06/22 07:33:46;;;;;;;1.65;0.43;;;;;;;;;;374437;141;857696;-58
2022/06/22 07:35:00;;;;;;;2.60;0.79;;;;;;;;;;376223;138;858850;-57
2022/06/22 07:36:04;;;;;;;1.20;0.40;;;;;;;;;;376799;138;859027;-55
2022/06/22 07:37:16;;;;;;;1.75;0.47;;;;;;;;;;376632;138;857762;-58
2022/06/22 07:38:35;;;;;;;1.82;0.81;;;;;;;;;;377539;138;858944;-57
2022/06/22 07:39:39;;;;;;;1.04;0.68;;;;;;;;;;373565;138;859155;-56
2022/06/22 07:41:18;;;;;;;1.81;0.81;;;;;;;;;;377243;138;857358;-56
2022/06/22 07:41:44;;;;;;;1.83;0.79;;;;;;;;;;372296;138;857337;-56
2022/06/22 07:42:46;;;;;;;1.90;0.78;;;;;;;;;;375233;138;865060;-56
2022/06/22 07:43:56;;;;;;;1.50;0.81;;;;;;;;;;378985;138;857404;-57
2022/06/22 07:44:57;;;;;;;1.28;0.79;;;;;;;;;;374615;138;858404;-57
2022/06/22 07:45:59;;;;;;;1.56;0.49;;;;;;;;;;375213;138;857396;-58
2022/06/22 07:47:18;;;;;;;2.86;0.88;;;;;;;;;;376564;138;866540;-57
2022/06/22 07:48:20;;;;;;;2.22;0.88;;;;;;;;;;375759;138;859001;-56
2022/06/22 07:49:23;;;;;;;0.73;0.69;;;;;;;;;;374299;138;857348;-54
2022/06/22 07:50:27;;;;;;;3.95;1.09;;;;;;;;;;374847;138;858669;-56
2022/06/22 07:51:29;;;;;;;2.19;0.72;;;;;;;;;;374721;138;859765;-57
2022/06/22 07:52:32;;;;;;;3.28;0.80;;;;;;;;;;375465;138;858287;-56
2022/06/22 07:53:36;;;;;;;1.67;0.66;;;;;;;;;;373681;138;858078;-62